ěÝzenÝ letovÚho provozu ╚eskÚ republiky
Letiste: LKBC Aktualizace: 10.05.2021 03:32:24  UTC
 METAR LKBC 10.05. 03:30 RRA
METAR LKBC 100330Z AUTO 10005KT CAVOK 10/05 Q1010=